sensor_id;sensor_type;location;lat;lon;timestamp;P1;durP1;ratioP1;P2;durP2;ratioP2
79706;SDS011;69200;53.612;-2.416;2024-01-30T00:00:31;19.73;;;8.70;;
79706;SDS011;69200;53.612;-2.416;2024-01-30T00:02:56;31.93;;;9.67;;
79706;SDS011;69200;53.612;-2.416;2024-01-30T00:05:21;26.90;;;10.23;;
79706;SDS011;69200;53.612;-2.416;2024-01-30T00:07:47;27.33;;;9.13;;
79706;SDS011;69200;53.612;-2.416;2024-01-30T00:10:12;27.57;;;11.20;;
79706;SDS011;69200;53.612;-2.416;2024-01-30T00:12:37;30.93;;;9.37;;
79706;SDS011;69200;53.612;-2.416;2024-01-30T00:15:02;23.10;;;9.57;;
79706;SDS011;69200;53.612;-2.416;2024-01-30T00:17:29;24.23;;;9.85;;
79706;SDS011;69200;53.612;-2.416;2024-01-30T00:19:55;27.08;;;10.40;;
79706;SDS011;69200;53.612;-2.416;2024-01-30T00:22:20;29.20;;;10.45;;
79706;SDS011;69200;53.612;-2.416;2024-01-30T00:24:45;25.17;;;10.97;;
79706;SDS011;69200;53.612;-2.416;2024-01-30T00:27:11;29.47;;;10.40;;
79706;SDS011;69200;53.612;-2.416;2024-01-30T00:29:36;25.33;;;8.90;;
79706;SDS011;69200;53.612;-2.416;2024-01-30T00:32:01;25.77;;;9.10;;
79706;SDS011;69200;53.612;-2.416;2024-01-30T00:34:26;28.50;;;9.37;;
79706;SDS011;69200;53.612;-2.416;2024-01-30T00:36:52;25.50;;;9.53;;
79706;SDS011;69200;53.612;-2.416;2024-01-30T00:39:17;18.57;;;7.03;;
79706;SDS011;69200;53.612;-2.416;2024-01-30T00:41:44;23.30;;;7.70;;
79706;SDS011;69200;53.612;-2.416;2024-01-30T00:44:09;21.48;;;6.57;;
79706;SDS011;69200;53.612;-2.416;2024-01-30T00:46:35;23.43;;;6.43;;
79706;SDS011;69200;53.612;-2.416;2024-01-30T00:49:00;16.93;;;6.60;;
79706;SDS011;69200;53.612;-2.416;2024-01-30T00:51:25;16.03;;;5.60;;
79706;SDS011;69200;53.612;-2.416;2024-01-30T00:53:50;14.83;;;5.93;;
79706;SDS011;69200;53.612;-2.416;2024-01-30T00:56:15;16.33;;;5.53;;
79706;SDS011;69200;53.612;-2.416;2024-01-30T00:58:43;15.15;;;5.25;;
79706;SDS011;69200;53.612;-2.416;2024-01-30T01:01:08;10.10;;;3.80;;
79706;SDS011;69200;53.612;-2.416;2024-01-30T01:03:33;11.77;;;4.43;;
79706;SDS011;69200;53.612;-2.416;2024-01-30T01:05:59;11.88;;;4.18;;
79706;SDS011;69200;53.612;-2.416;2024-01-30T01:08:24;9.40;;;3.67;;
79706;SDS011;69200;53.612;-2.416;2024-01-30T01:10:50;11.57;;;4.60;;
79706;SDS011;69200;53.612;-2.416;2024-01-30T01:13:15;9.47;;;4.07;;
79706;SDS011;69200;53.612;-2.416;2024-01-30T01:15:40;12.03;;;5.13;;
79706;SDS011;69200;53.612;-2.416;2024-01-30T01:18:05;10.20;;;4.63;;
79706;SDS011;69200;53.612;-2.416;2024-01-30T01:20:31;12.77;;;4.53;;
79706;SDS011;69200;53.612;-2.416;2024-01-30T01:22:56;10.60;;;3.97;;
79706;SDS011;69200;53.612;-2.416;2024-01-30T01:25:21;9.93;;;3.90;;
79706;SDS011;69200;53.612;-2.416;2024-01-30T01:27:46;11.23;;;4.63;;
79706;SDS011;69200;53.612;-2.416;2024-01-30T01:30:16;10.95;;;4.32;;
79706;SDS011;69200;53.612;-2.416;2024-01-30T01:32:46;11.70;;;4.10;;
79706;SDS011;69200;53.612;-2.416;2024-01-30T01:35:15;11.50;;;4.32;;
79706;SDS011;69200;53.612;-2.416;2024-01-30T01:37:41;12.17;;;5.10;;
79706;SDS011;69200;53.612;-2.416;2024-01-30T01:40:06;12.37;;;4.23;;
79706;SDS011;69200;53.612;-2.416;2024-01-30T01:42:32;10.15;;;3.70;;
79706;SDS011;69200;53.612;-2.416;2024-01-30T01:44:57;9.43;;;3.70;;
79706;SDS011;69200;53.612;-2.416;2024-01-30T01:47:22;9.77;;;3.90;;
79706;SDS011;69200;53.612;-2.416;2024-01-30T01:49:48;7.03;;;2.80;;
79706;SDS011;69200;53.612;-2.416;2024-01-30T01:52:13;7.82;;;2.50;;
79706;SDS011;69200;53.612;-2.416;2024-01-30T01:54:38;5.63;;;2.00;;
79706;SDS011;69200;53.612;-2.416;2024-01-30T01:57:04;5.35;;;1.98;;
79706;SDS011;69200;53.612;-2.416;2024-01-30T01:59:29;5.75;;;2.35;;
79706;SDS011;69200;53.612;-2.416;2024-01-30T02:01:55;5.25;;;2.05;;
79706;SDS011;69200;53.612;-2.416;2024-01-30T02:04:20;6.20;;;1.92;;
79706;SDS011;69200;53.612;-2.416;2024-01-30T02:06:46;4.87;;;1.80;;
79706;SDS011;69200;53.612;-2.416;2024-01-30T02:09:11;5.50;;;1.60;;
79706;SDS011;69200;53.612;-2.416;2024-01-30T02:11:36;5.27;;;1.70;;
79706;SDS011;69200;53.612;-2.416;2024-01-30T02:14:02;5.85;;;1.92;;
79706;SDS011;69200;53.612;-2.416;2024-01-30T02:16:27;7.35;;;2.00;;
79706;SDS011;69200;53.612;-2.416;2024-01-30T02:18:53;4.43;;;1.38;;
79706;SDS011;69200;53.612;-2.416;2024-01-30T02:21:18;5.63;;;2.10;;
79706;SDS011;69200;53.612;-2.416;2024-01-30T02:23:44;7.30;;;1.75;;
79706;SDS011;69200;53.612;-2.416;2024-01-30T02:26:11;5.40;;;1.55;;
79706;SDS011;69200;53.612;-2.416;2024-01-30T02:28:37;5.57;;;1.80;;
79706;SDS011;69200;53.612;-2.416;2024-01-30T02:31:02;5.60;;;2.40;;
79706;SDS011;69200;53.612;-2.416;2024-01-30T02:33:27;6.35;;;1.92;;
79706;SDS011;69200;53.612;-2.416;2024-01-30T02:35:52;4.17;;;1.80;;
79706;SDS011;69200;53.612;-2.416;2024-01-30T02:38:18;7.38;;;1.77;;
79706;SDS011;69200;53.612;-2.416;2024-01-30T02:40:43;6.25;;;1.70;;
79706;SDS011;69200;53.612;-2.416;2024-01-30T02:43:08;5.73;;;2.00;;
79706;SDS011;69200;53.612;-2.416;2024-01-30T02:45:34;8.60;;;1.90;;
79706;SDS011;69200;53.612;-2.416;2024-01-30T02:47:59;7.03;;;1.47;;
79706;SDS011;69200;53.612;-2.416;2024-01-30T02:50:24;4.93;;;1.73;;
79706;SDS011;69200;53.612;-2.416;2024-01-30T02:52:49;5.70;;;2.17;;
79706;SDS011;69200;53.612;-2.416;2024-01-30T02:55:15;5.47;;;2.00;;
79706;SDS011;69200;53.612;-2.416;2024-01-30T02:57:42;4.60;;;1.90;;
79706;SDS011;69200;53.612;-2.416;2024-01-30T03:00:08;5.38;;;1.48;;
79706;SDS011;69200;53.612;-2.416;2024-01-30T03:02:34;6.90;;;1.67;;
79706;SDS011;69200;53.612;-2.416;2024-01-30T03:04:59;5.65;;;1.63;;
79706;SDS011;69200;53.612;-2.416;2024-01-30T03:07:25;4.33;;;1.60;;
79706;SDS011;69200;53.612;-2.416;2024-01-30T03:09:50;4.95;;;1.55;;
79706;SDS011;69200;53.612;-2.416;2024-01-30T03:12:15;4.83;;;1.63;;
79706;SDS011;69200;53.612;-2.416;2024-01-30T03:14:41;4.75;;;1.67;;
79706;SDS011;69200;53.612;-2.416;2024-01-30T03:17:06;4.20;;;1.73;;
79706;SDS011;69200;53.612;-2.416;2024-01-30T03:19:31;4.47;;;1.65;;
79706;SDS011;69200;53.612;-2.416;2024-01-30T03:21:57;5.13;;;1.57;;
79706;SDS011;69200;53.612;-2.416;2024-01-30T03:24:22;5.27;;;1.53;;
79706;SDS011;69200;53.612;-2.416;2024-01-30T03:26:47;4.83;;;1.70;;
79706;SDS011;69200;53.612;-2.416;2024-01-30T03:29:12;3.70;;;1.47;;
79706;SDS011;69200;53.612;-2.416;2024-01-30T03:31:38;4.13;;;1.40;;
79706;SDS011;69200;53.612;-2.416;2024-01-30T03:34:03;4.82;;;1.38;;
79706;SDS011;69200;53.612;-2.416;2024-01-30T03:36:29;3.80;;;1.20;;
79706;SDS011;69200;53.612;-2.416;2024-01-30T03:38:54;3.50;;;1.23;;
79706;SDS011;69200;53.612;-2.416;2024-01-30T03:41:19;4.07;;;1.27;;
79706;SDS011;69200;53.612;-2.416;2024-01-30T03:43:44;4.13;;;1.23;;
79706;SDS011;69200;53.612;-2.416;2024-01-30T03:46:11;5.40;;;1.37;;
79706;SDS011;69200;53.612;-2.416;2024-01-30T03:48:37;5.10;;;1.13;;
79706;SDS011;69200;53.612;-2.416;2024-01-30T03:51:02;2.87;;;0.90;;
79706;SDS011;69200;53.612;-2.416;2024-01-30T03:53:27;3.13;;;1.20;;
79706;SDS011;69200;53.612;-2.416;2024-01-30T03:55:52;5.33;;;1.30;;
79706;SDS011;69200;53.612;-2.416;2024-01-30T03:58:18;2.97;;;0.93;;
79706;SDS011;69200;53.612;-2.416;2024-01-30T04:00:43;3.70;;;1.20;;
79706;SDS011;69200;53.612;-2.416;2024-01-30T04:03:08;4.23;;;1.30;;
79706;SDS011;69200;53.612;-2.416;2024-01-30T04:05:33;2.93;;;1.10;;
79706;SDS011;69200;53.612;-2.416;2024-01-30T04:07:59;3.50;;;1.07;;
79706;SDS011;69200;53.612;-2.416;2024-01-30T04:10:24;4.28;;;1.35;;
79706;SDS011;69200;53.612;-2.416;2024-01-30T04:12:50;5.53;;;1.38;;
79706;SDS011;69200;53.612;-2.416;2024-01-30T04:15:15;4.07;;;1.40;;
79706;SDS011;69200;53.612;-2.416;2024-01-30T04:17:41;3.25;;;1.17;;
79706;SDS011;69200;53.612;-2.416;2024-01-30T04:20:06;3.93;;;1.27;;
79706;SDS011;69200;53.612;-2.416;2024-01-30T04:22:32;3.65;;;1.10;;
79706;SDS011;69200;53.612;-2.416;2024-01-30T04:24:57;3.00;;;1.00;;
79706;SDS011;69200;53.612;-2.416;2024-01-30T04:27:22;4.47;;;1.37;;
79706;SDS011;69200;53.612;-2.416;2024-01-30T04:29:47;4.45;;;1.40;;
79706;SDS011;69200;53.612;-2.416;2024-01-30T04:32:13;3.80;;;1.43;;
79706;SDS011;69200;53.612;-2.416;2024-01-30T04:34:38;2.90;;;0.93;;
79706;SDS011;69200;53.612;-2.416;2024-01-30T04:37:03;4.37;;;1.30;;
79706;SDS011;69200;53.612;-2.416;2024-01-30T04:39:28;2.67;;;1.00;;
79706;SDS011;69200;53.612;-2.416;2024-01-30T04:41:54;4.13;;;1.40;;
79706;SDS011;69200;53.612;-2.416;2024-01-30T04:44:19;4.38;;;1.63;;
79706;SDS011;69200;53.612;-2.416;2024-01-30T04:46:44;4.43;;;1.57;;
79706;SDS011;69200;53.612;-2.416;2024-01-30T04:49:09;3.30;;;1.23;;
79706;SDS011;69200;53.612;-2.416;2024-01-30T04:51:35;3.83;;;1.30;;
79706;SDS011;69200;53.612;-2.416;2024-01-30T04:54:00;3.63;;;1.10;;
79706;SDS011;69200;53.612;-2.416;2024-01-30T04:56:25;4.10;;;1.53;;
79706;SDS011;69200;53.612;-2.416;2024-01-30T04:58:50;4.50;;;1.50;;
79706;SDS011;69200;53.612;-2.416;2024-01-30T05:01:16;3.40;;;1.17;;
79706;SDS011;69200;53.612;-2.416;2024-01-30T05:03:41;3.40;;;1.30;;
79706;SDS011;69200;53.612;-2.416;2024-01-30T05:06:06;3.07;;;1.00;;
79706;SDS011;69200;53.612;-2.416;2024-01-30T05:08:32;3.63;;;1.23;;
79706;SDS011;69200;53.612;-2.416;2024-01-30T05:10:59;3.30;;;1.00;;
79706;SDS011;69200;53.612;-2.416;2024-01-30T05:13:25;2.55;;;0.80;;
79706;SDS011;69200;53.612;-2.416;2024-01-30T05:15:50;3.50;;;1.10;;
79706;SDS011;69200;53.612;-2.416;2024-01-30T05:18:15;1.53;;;0.60;;
79706;SDS011;69200;53.612;-2.416;2024-01-30T05:20:40;2.00;;;0.77;;
79706;SDS011;69200;53.612;-2.416;2024-01-30T05:23:06;2.03;;;0.60;;
79706;SDS011;69200;53.612;-2.416;2024-01-30T05:25:31;0.63;;;0.20;;
79706;SDS011;69200;53.612;-2.416;2024-01-30T05:27:56;0.43;;;0.20;;
79706;SDS011;69200;53.612;-2.416;2024-01-30T05:30:21;1.57;;;0.33;;
79706;SDS011;69200;53.612;-2.416;2024-01-30T05:32:46;0.87;;;0.20;;
79706;SDS011;69200;53.612;-2.416;2024-01-30T05:35:12;0.60;;;0.20;;
79706;SDS011;69200;53.612;-2.416;2024-01-30T05:37:37;0.67;;;0.20;;
79706;SDS011;69200;53.612;-2.416;2024-01-30T05:40:02;0.60;;;0.20;;
79706;SDS011;69200;53.612;-2.416;2024-01-30T05:42:28;0.38;;;0.17;;
79706;SDS011;69200;53.612;-2.416;2024-01-30T05:44:53;1.07;;;0.40;;
79706;SDS011;69200;53.612;-2.416;2024-01-30T05:47:18;1.17;;;0.27;;
79706;SDS011;69200;53.612;-2.416;2024-01-30T05:49:43;1.33;;;0.30;;
79706;SDS011;69200;53.612;-2.416;2024-01-30T05:52:09;0.63;;;0.20;;
79706;SDS011;69200;53.612;-2.416;2024-01-30T05:54:34;0.68;;;0.22;;
79706;SDS011;69200;53.612;-2.416;2024-01-30T05:57:00;0.93;;;0.30;;
79706;SDS011;69200;53.612;-2.416;2024-01-30T05:59:25;1.37;;;0.37;;
79706;SDS011;69200;53.612;-2.416;2024-01-30T06:01:50;1.43;;;0.40;;
79706;SDS011;69200;53.612;-2.416;2024-01-30T06:04:15;0.90;;;0.40;;
79706;SDS011;69200;53.612;-2.416;2024-01-30T06:06:41;1.23;;;0.40;;
79706;SDS011;69200;53.612;-2.416;2024-01-30T06:09:06;0.63;;;0.20;;
79706;SDS011;69200;53.612;-2.416;2024-01-30T06:11:34;0.65;;;0.10;;
79706;SDS011;69200;53.612;-2.416;2024-01-30T06:13:59;1.45;;;0.40;;
79706;SDS011;69200;53.612;-2.416;2024-01-30T06:16:24;1.90;;;0.53;;
79706;SDS011;69200;53.612;-2.416;2024-01-30T06:18:49;0.90;;;0.37;;
79706;SDS011;69200;53.612;-2.416;2024-01-30T06:21:15;1.67;;;0.50;;
79706;SDS011;69200;53.612;-2.416;2024-01-30T06:23:40;0.90;;;0.40;;
79706;SDS011;69200;53.612;-2.416;2024-01-30T06:26:06;1.23;;;0.30;;
79706;SDS011;69200;53.612;-2.416;2024-01-30T06:28:31;0.60;;;0.20;;
79706;SDS011;69200;53.612;-2.416;2024-01-30T06:30:56;1.47;;;0.40;;
79706;SDS011;69200;53.612;-2.416;2024-01-30T06:33:22;1.00;;;0.40;;
79706;SDS011;69200;53.612;-2.416;2024-01-30T06:35:47;1.33;;;0.40;;
79706;SDS011;69200;53.612;-2.416;2024-01-30T06:38:12;1.53;;;0.40;;
79706;SDS011;69200;53.612;-2.416;2024-01-30T06:40:38;0.75;;;0.20;;
79706;SDS011;69200;53.612;-2.416;2024-01-30T06:43:04;0.60;;;0.23;;
79706;SDS011;69200;53.612;-2.416;2024-01-30T06:45:29;1.58;;;0.38;;
79706;SDS011;69200;53.612;-2.416;2024-01-30T06:47:55;0.73;;;0.30;;
79706;SDS011;69200;53.612;-2.416;2024-01-30T06:50:20;1.42;;;0.40;;
79706;SDS011;69200;53.612;-2.416;2024-01-30T06:52:45;2.38;;;0.77;;
79706;SDS011;69200;53.612;-2.416;2024-01-30T06:55:11;2.63;;;0.60;;
79706;SDS011;69200;53.612;-2.416;2024-01-30T06:57:36;1.40;;;0.57;;
79706;SDS011;69200;53.612;-2.416;2024-01-30T07:00:01;2.53;;;0.83;;
79706;SDS011;69200;53.612;-2.416;2024-01-30T07:02:27;3.45;;;1.10;;
79706;SDS011;69200;53.612;-2.416;2024-01-30T07:04:52;2.88;;;1.00;;
79706;SDS011;69200;53.612;-2.416;2024-01-30T07:07:18;2.20;;;0.67;;
79706;SDS011;69200;53.612;-2.416;2024-01-30T07:09:43;2.33;;;0.70;;
79706;SDS011;69200;53.612;-2.416;2024-01-30T07:12:08;2.38;;;0.63;;
79706;SDS011;69200;53.612;-2.416;2024-01-30T07:14:33;2.90;;;0.90;;
79706;SDS011;69200;53.612;-2.416;2024-01-30T07:16:59;2.43;;;0.70;;
79706;SDS011;69200;53.612;-2.416;2024-01-30T07:19:24;2.43;;;0.70;;
79706;SDS011;69200;53.612;-2.416;2024-01-30T07:21:49;2.37;;;0.70;;
79706;SDS011;69200;53.612;-2.416;2024-01-30T07:24:14;2.97;;;0.90;;
79706;SDS011;69200;53.612;-2.416;2024-01-30T07:26:40;2.23;;;0.80;;
79706;SDS011;69200;53.612;-2.416;2024-01-30T07:29:06;2.58;;;0.88;;
79706;SDS011;69200;53.612;-2.416;2024-01-30T07:31:31;3.37;;;1.10;;
79706;SDS011;69200;53.612;-2.416;2024-01-30T07:33:56;2.77;;;1.03;;
79706;SDS011;69200;53.612;-2.416;2024-01-30T07:36:21;4.47;;;1.40;;
79706;SDS011;69200;53.612;-2.416;2024-01-30T07:38:47;2.87;;;1.03;;
79706;SDS011;69200;53.612;-2.416;2024-01-30T07:41:12;4.47;;;1.50;;
79706;SDS011;69200;53.612;-2.416;2024-01-30T07:43:38;4.17;;;1.40;;
79706;SDS011;69200;53.612;-2.416;2024-01-30T07:46:03;3.85;;;1.40;;
79706;SDS011;69200;53.612;-2.416;2024-01-30T07:48:29;3.53;;;1.30;;
79706;SDS011;69200;53.612;-2.416;2024-01-30T07:50:54;3.77;;;1.23;;
79706;SDS011;69200;53.612;-2.416;2024-01-30T07:53:19;3.07;;;1.10;;
79706;SDS011;69200;53.612;-2.416;2024-01-30T07:55:45;3.13;;;1.20;;
79706;SDS011;69200;53.612;-2.416;2024-01-30T07:58:11;2.55;;;1.02;;
79706;SDS011;69200;53.612;-2.416;2024-01-30T08:00:37;3.33;;;1.20;;
79706;SDS011;69200;53.612;-2.416;2024-01-30T08:03:02;3.17;;;1.17;;
79706;SDS011;69200;53.612;-2.416;2024-01-30T08:05:27;4.85;;;1.20;;
79706;SDS011;69200;53.612;-2.416;2024-01-30T08:07:53;3.10;;;1.20;;
79706;SDS011;69200;53.612;-2.416;2024-01-30T08:10:18;3.00;;;1.13;;
79706;SDS011;69200;53.612;-2.416;2024-01-30T08:12:44;3.70;;;1.10;;
79706;SDS011;69200;53.612;-2.416;2024-01-30T08:15:09;2.05;;;0.77;;
79706;SDS011;69200;53.612;-2.416;2024-01-30T08:17:34;3.83;;;1.10;;
79706;SDS011;69200;53.612;-2.416;2024-01-30T08:20:00;3.57;;;1.10;;
79706;SDS011;69200;53.612;-2.416;2024-01-30T08:22:25;3.13;;;1.13;;
79706;SDS011;69200;53.612;-2.416;2024-01-30T08:24:50;2.80;;;1.00;;
79706;SDS011;69200;53.612;-2.416;2024-01-30T08:27:16;2.40;;;0.93;;
79706;SDS011;69200;53.612;-2.416;2024-01-30T08:29:41;2.60;;;1.00;;
79706;SDS011;69200;53.612;-2.416;2024-01-30T08:32:06;2.87;;;1.00;;
79706;SDS011;69200;53.612;-2.416;2024-01-30T08:34:32;1.83;;;0.85;;
79706;SDS011;69200;53.612;-2.416;2024-01-30T08:36:57;2.28;;;0.80;;
79706;SDS011;69200;53.612;-2.416;2024-01-30T08:39:22;2.77;;;1.00;;
79706;SDS011;69200;53.612;-2.416;2024-01-30T08:41:48;2.00;;;0.60;;
79706;SDS011;69200;53.612;-2.416;2024-01-30T08:44:13;2.60;;;0.87;;
79706;SDS011;69200;53.612;-2.416;2024-01-30T08:46:38;1.60;;;0.70;;
79706;SDS011;69200;53.612;-2.416;2024-01-30T08:49:03;2.33;;;0.80;;
79706;SDS011;69200;53.612;-2.416;2024-01-30T08:51:29;2.80;;;0.88;;
79706;SDS011;69200;53.612;-2.416;2024-01-30T08:53:55;3.17;;;1.10;;
79706;SDS011;69200;53.612;-2.416;2024-01-30T08:56:20;5.50;;;1.07;;
79706;SDS011;69200;53.612;-2.416;2024-01-30T08:58:45;1.70;;;0.53;;
79706;SDS011;69200;53.612;-2.416;2024-01-30T09:01:10;2.00;;;0.70;;
79706;SDS011;69200;53.612;-2.416;2024-01-30T09:03:36;2.43;;;0.90;;
79706;SDS011;69200;53.612;-2.416;2024-01-30T09:06:07;2.88;;;0.90;;
79706;SDS011;69200;53.612;-2.416;2024-01-30T09:08:32;2.58;;;1.00;;
79706;SDS011;69200;53.612;-2.416;2024-01-30T09:10:58;4.33;;;1.00;;
79706;SDS011;69200;53.612;-2.416;2024-01-30T09:13:23;2.13;;;0.80;;
79706;SDS011;69200;53.612;-2.416;2024-01-30T09:15:48;1.10;;;0.53;;
79706;SDS011;69200;53.612;-2.416;2024-01-30T09:18:14;1.43;;;0.53;;
79706;SDS011;69200;53.612;-2.416;2024-01-30T09:20:39;1.90;;;0.40;;
79706;SDS011;69200;53.612;-2.416;2024-01-30T09:23:04;1.97;;;0.70;;
79706;SDS011;69200;53.612;-2.416;2024-01-30T09:25:29;1.67;;;0.70;;
79706;SDS011;69200;53.612;-2.416;2024-01-30T09:27:54;0.50;;;0.30;;
79706;SDS011;69200;53.612;-2.416;2024-01-30T09:30:20;0.77;;;0.30;;
79706;SDS011;69200;53.612;-2.416;2024-01-30T09:32:45;1.03;;;0.30;;
79706;SDS011;69200;53.612;-2.416;2024-01-30T09:35:10;0.57;;;0.20;;
79706;SDS011;69200;53.612;-2.416;2024-01-30T09:37:35;2.47;;;0.40;;
79706;SDS011;69200;53.612;-2.416;2024-01-30T09:40:01;1.47;;;0.37;;
79706;SDS011;69200;53.612;-2.416;2024-01-30T09:42:35;1.00;;;0.30;;
79706;SDS011;69200;53.612;-2.416;2024-01-30T09:45:01;0.40;;;0.10;;
79706;SDS011;69200;53.612;-2.416;2024-01-30T09:47:26;1.15;;;0.30;;
79706;SDS011;69200;53.612;-2.416;2024-01-30T09:49:51;0.93;;;0.27;;
79706;SDS011;69200;53.612;-2.416;2024-01-30T09:52:17;1.40;;;0.38;;
79706;SDS011;69200;53.612;-2.416;2024-01-30T09:54:43;6.15;;;0.60;;
79706;SDS011;69200;53.612;-2.416;2024-01-30T09:57:09;1.63;;;0.40;;
79706;SDS011;69200;53.612;-2.416;2024-01-30T09:59:36;0.20;;;0.10;;
79706;SDS011;69200;53.612;-2.416;2024-01-30T10:02:01;1.42;;;0.52;;
79706;SDS011;69200;53.612;-2.416;2024-01-30T10:04:29;1.27;;;0.30;;
79706;SDS011;69200;53.612;-2.416;2024-01-30T10:06:54;1.23;;;0.30;;
79706;SDS011;69200;53.612;-2.416;2024-01-30T10:09:19;0.07;;;0.00;;
79706;SDS011;69200;53.612;-2.416;2024-01-30T10:11:44;2.00;;;0.60;;
79706;SDS011;69200;53.612;-2.416;2024-01-30T10:14:10;0.73;;;0.47;;
79706;SDS011;69200;53.612;-2.416;2024-01-30T10:16:35;1.27;;;0.40;;
79706;SDS011;69200;53.612;-2.416;2024-01-30T10:19:00;0.60;;;0.20;;
79706;SDS011;69200;53.612;-2.416;2024-01-30T10:21:25;0.63;;;0.30;;
79706;SDS011;69200;53.612;-2.416;2024-01-30T10:23:50;3.20;;;0.40;;
79706;SDS011;69200;53.612;-2.416;2024-01-30T10:26:16;1.00;;;0.30;;
79706;SDS011;69200;53.612;-2.416;2024-01-30T10:28:42;0.60;;;0.20;;
79706;SDS011;69200;53.612;-2.416;2024-01-30T10:31:07;1.25;;;0.30;;
79706;SDS011;69200;53.612;-2.416;2024-01-30T10:33:33;0.93;;;0.28;;
79706;SDS011;69200;53.612;-2.416;2024-01-30T10:36:04;0.43;;;0.20;;
79706;SDS011;69200;53.612;-2.416;2024-01-30T10:38:31;0.55;;;0.38;;
79706;SDS011;69200;53.612;-2.416;2024-01-30T10:40:57;0.35;;;0.20;;
79706;SDS011;69200;53.612;-2.416;2024-01-30T10:43:22;0.63;;;0.22;;
79706;SDS011;69200;53.612;-2.416;2024-01-30T10:45:48;0.30;;;0.20;;
79706;SDS011;69200;53.612;-2.416;2024-01-30T10:48:14;0.57;;;0.28;;
79706;SDS011;69200;53.612;-2.416;2024-01-30T10:50:41;0.35;;;0.10;;
79706;SDS011;69200;53.612;-2.416;2024-01-30T10:53:07;0.95;;;0.40;;
79706;SDS011;69200;53.612;-2.416;2024-01-30T10:55:33;0.90;;;0.30;;
79706;SDS011;69200;53.612;-2.416;2024-01-30T10:57:58;1.25;;;0.38;;
79706;SDS011;69200;53.612;-2.416;2024-01-30T11:00:24;1.45;;;0.40;;
79706;SDS011;69200;53.612;-2.416;2024-01-30T11:02:51;2.00;;;0.68;;
79706;SDS011;69200;53.612;-2.416;2024-01-30T11:05:23;0.80;;;0.32;;
79706;SDS011;69200;53.612;-2.416;2024-01-30T11:07:50;1.80;;;0.50;;
79706;SDS011;69200;53.612;-2.416;2024-01-30T11:10:15;0.83;;;0.40;;
79706;SDS011;69200;53.612;-2.416;2024-01-30T11:12:40;1.50;;;0.40;;
79706;SDS011;69200;53.612;-2.416;2024-01-30T11:15:08;1.08;;;0.35;;
79706;SDS011;69200;53.612;-2.416;2024-01-30T11:20:14;2.70;;;0.70;;
79706;SDS011;69200;53.612;-2.416;2024-01-30T11:22:41;3.70;;;0.77;;
79706;SDS011;69200;53.612;-2.416;2024-01-30T11:25:06;2.85;;;0.50;;
79706;SDS011;69200;53.612;-2.416;2024-01-30T11:27:32;3.90;;;1.10;;
79706;SDS011;69200;53.612;-2.416;2024-01-30T11:30:01;2.00;;;0.50;;
79706;SDS011;69200;53.612;-2.416;2024-01-30T11:32:27;1.70;;;0.50;;
79706;SDS011;69200;53.612;-2.416;2024-01-30T11:34:52;1.33;;;0.50;;
79706;SDS011;69200;53.612;-2.416;2024-01-30T11:37:18;2.42;;;0.65;;
79706;SDS011;69200;53.612;-2.416;2024-01-30T11:39:45;1.45;;;0.57;;
79706;SDS011;69200;53.612;-2.416;2024-01-30T11:42:11;3.45;;;0.80;;
79706;SDS011;69200;53.612;-2.416;2024-01-30T11:44:36;2.65;;;0.57;;
79706;SDS011;69200;53.612;-2.416;2024-01-30T11:47:01;1.17;;;0.50;;
79706;SDS011;69200;53.612;-2.416;2024-01-30T11:49:28;1.63;;;0.60;;
79706;SDS011;69200;53.612;-2.416;2024-01-30T11:51:53;1.98;;;0.60;;
79706;SDS011;69200;53.612;-2.416;2024-01-30T11:54:19;2.22;;;0.70;;
79706;SDS011;69200;53.612;-2.416;2024-01-30T11:56:44;1.27;;;0.50;;
79706;SDS011;69200;53.612;-2.416;2024-01-30T11:59:09;1.57;;;0.50;;
79706;SDS011;69200;53.612;-2.416;2024-01-30T12:01:35;4.85;;;0.77;;
79706;SDS011;69200;53.612;-2.416;2024-01-30T12:04:01;1.80;;;0.55;;
79706;SDS011;69200;53.612;-2.416;2024-01-30T12:06:26;2.78;;;0.60;;
79706;SDS011;69200;53.612;-2.416;2024-01-30T12:08:56;3.30;;;0.70;;
79706;SDS011;69200;53.612;-2.416;2024-01-30T12:11:21;2.08;;;0.60;;
79706;SDS011;69200;53.612;-2.416;2024-01-30T12:13:47;1.93;;;0.87;;
79706;SDS011;69200;53.612;-2.416;2024-01-30T12:16:12;1.30;;;0.50;;
79706;SDS011;69200;53.612;-2.416;2024-01-30T12:18:38;4.00;;;0.70;;
79706;SDS011;69200;53.612;-2.416;2024-01-30T12:21:03;3.47;;;0.67;;
79706;SDS011;69200;53.612;-2.416;2024-01-30T12:23:28;4.30;;;0.53;;
79706;SDS011;69200;53.612;-2.416;2024-01-30T12:25:54;0.93;;;0.30;;
79706;SDS011;69200;53.612;-2.416;2024-01-30T12:28:19;1.10;;;0.47;;
79706;SDS011;69200;53.612;-2.416;2024-01-30T12:30:45;4.78;;;0.47;;
79706;SDS011;69200;53.612;-2.416;2024-01-30T12:33:15;1.90;;;0.53;;
79706;SDS011;69200;53.612;-2.416;2024-01-30T12:35:40;5.13;;;0.63;;
79706;SDS011;69200;53.612;-2.416;2024-01-30T12:38:10;3.45;;;0.60;;
79706;SDS011;69200;53.612;-2.416;2024-01-30T12:40:35;0.97;;;0.40;;
79706;SDS011;69200;53.612;-2.416;2024-01-30T12:43:00;2.00;;;0.60;;
79706;SDS011;69200;53.612;-2.416;2024-01-30T12:45:26;3.05;;;0.50;;
79706;SDS011;69200;53.612;-2.416;2024-01-30T12:47:51;2.73;;;0.40;;
79706;SDS011;69200;53.612;-2.416;2024-01-30T12:50:16;2.83;;;0.60;;
79706;SDS011;69200;53.612;-2.416;2024-01-30T12:52:42;0.75;;;0.30;;
79706;SDS011;69200;53.612;-2.416;2024-01-30T12:55:08;1.25;;;0.43;;
79706;SDS011;69200;53.612;-2.416;2024-01-30T12:57:33;2.00;;;0.60;;
79706;SDS011;69200;53.612;-2.416;2024-01-30T12:59:58;1.58;;;0.38;;
79706;SDS011;69200;53.612;-2.416;2024-01-30T13:02:24;3.17;;;0.77;;
79706;SDS011;69200;53.612;-2.416;2024-01-30T13:04:49;4.47;;;0.80;;
79706;SDS011;69200;53.612;-2.416;2024-01-30T13:07:14;4.73;;;0.80;;
79706;SDS011;69200;53.612;-2.416;2024-01-30T13:09:39;3.93;;;0.50;;
79706;SDS011;69200;53.612;-2.416;2024-01-30T13:12:05;1.25;;;0.35;;
79706;SDS011;69200;53.612;-2.416;2024-01-30T13:14:30;2.08;;;0.35;;
79706;SDS011;69200;53.612;-2.416;2024-01-30T13:16:55;1.23;;;0.33;;
79706;SDS011;69200;53.612;-2.416;2024-01-30T13:19:21;1.33;;;0.50;;
79706;SDS011;69200;53.612;-2.416;2024-01-30T13:21:46;2.88;;;0.43;;
79706;SDS011;69200;53.612;-2.416;2024-01-30T13:24:12;4.75;;;0.82;;
79706;SDS011;69200;53.612;-2.416;2024-01-30T13:26:38;2.95;;;0.47;;
79706;SDS011;69200;53.612;-2.416;2024-01-30T13:29:03;2.73;;;0.40;;
79706;SDS011;69200;53.612;-2.416;2024-01-30T13:31:28;1.47;;;0.50;;
79706;SDS011;69200;53.612;-2.416;2024-01-30T13:33:54;1.80;;;0.40;;
79706;SDS011;69200;53.612;-2.416;2024-01-30T13:36:19;5.65;;;0.80;;
79706;SDS011;69200;53.612;-2.416;2024-01-30T13:38:45;2.58;;;0.47;;
79706;SDS011;69200;53.612;-2.416;2024-01-30T13:41:10;2.27;;;0.47;;
79706;SDS011;69200;53.612;-2.416;2024-01-30T13:43:35;2.67;;;0.63;;
79706;SDS011;69200;53.612;-2.416;2024-01-30T13:46:00;1.83;;;0.30;;
79706;SDS011;69200;53.612;-2.416;2024-01-30T13:48:26;2.55;;;0.50;;
79706;SDS011;69200;53.612;-2.416;2024-01-30T13:50:51;2.53;;;0.63;;
79706;SDS011;69200;53.612;-2.416;2024-01-30T13:53:18;3.28;;;0.70;;
79706;SDS011;69200;53.612;-2.416;2024-01-30T13:55:43;5.47;;;0.70;;
79706;SDS011;69200;53.612;-2.416;2024-01-30T13:58:08;2.70;;;0.87;;
79706;SDS011;69200;53.612;-2.416;2024-01-30T14:00:33;6.70;;;0.80;;
79706;SDS011;69200;53.612;-2.416;2024-01-30T14:02:59;4.13;;;0.70;;
79706;SDS011;69200;53.612;-2.416;2024-01-30T14:05:24;4.45;;;0.95;;
79706;SDS011;69200;53.612;-2.416;2024-01-30T14:07:50;3.78;;;0.70;;
79706;SDS011;69200;53.612;-2.416;2024-01-30T14:10:16;2.45;;;0.77;;
79706;SDS011;69200;53.612;-2.416;2024-01-30T14:12:44;7.10;;;0.70;;
79706;SDS011;69200;53.612;-2.416;2024-01-30T14:15:09;2.53;;;0.40;;
79706;SDS011;69200;53.612;-2.416;2024-01-30T14:17:35;1.83;;;0.50;;
79706;SDS011;69200;53.612;-2.416;2024-01-30T14:20:00;3.15;;;0.80;;
79706;SDS011;69200;53.612;-2.416;2024-01-30T14:22:26;2.42;;;0.57;;
79706;SDS011;69200;53.612;-2.416;2024-01-30T14:24:51;2.73;;;0.57;;